createdAt,value
2019-03-29T00:01:35.619Z,15.37
2019-03-29T00:04:05.938Z,14.07
2019-03-29T00:06:36.396Z,15.43
2019-03-29T00:09:06.605Z,14.03
2019-03-29T00:11:36.932Z,14.63
2019-03-29T00:14:07.301Z,14.40
2019-03-29T00:16:37.614Z,14.53
2019-03-29T00:19:07.939Z,14.77
2019-03-29T00:21:39.121Z,16.80
2019-03-29T00:24:08.606Z,15.77
2019-03-29T00:26:38.928Z,15.50
2019-03-29T00:29:09.278Z,14.57
2019-03-29T00:31:40.361Z,15.77
2019-03-29T00:34:10.686Z,14.97
2019-03-29T00:36:48.191Z,15.63
2019-03-29T00:39:38.901Z,15.50
2019-03-29T00:42:09.267Z,16.60
2019-03-29T00:44:40.349Z,14.93
2019-03-29T00:47:13.773Z,16.43
2019-03-29T00:49:48.179Z,14.83
2019-03-29T00:52:18.497Z,16.50
2019-03-29T00:54:52.930Z,14.97
2019-03-29T00:57:42.343Z,14.40
2019-03-29T01:00:14.345Z,15.70
2019-03-29T01:02:44.938Z,14.97
2019-03-29T01:05:15.001Z,14.70
2019-03-29T01:07:47.758Z,15.77
2019-03-29T01:10:18.077Z,14.47
2019-03-29T01:12:49.163Z,15.20
2019-03-29T01:15:38.890Z,14.43
2019-03-29T01:18:09.976Z,14.93
2019-03-29T01:20:59.433Z,15.67
2019-03-29T01:23:29.756Z,15.33
2019-03-29T01:26:00.967Z,14.70
2019-03-29T01:28:31.441Z,14.60
2019-03-29T01:31:02.061Z,15.47
2019-03-29T01:33:32.376Z,14.70
2019-03-29T01:36:02.716Z,15.50
2019-03-29T01:38:33.050Z,16.77
2019-03-29T01:41:03.484Z,15.07
2019-03-29T01:43:38.938Z,14.77
2019-03-29T01:46:13.347Z,16.77
2019-03-29T01:48:48.290Z,15.47
2019-03-29T01:51:18.113Z,15.80
2019-03-29T01:53:51.501Z,16.17
2019-03-29T01:56:43.262Z,16.20
2019-03-29T01:59:13.581Z,16.70
2019-03-29T02:01:44.715Z,15.27
2019-03-29T02:04:15.058Z,16.13
2019-03-29T02:06:45.786Z,16.73
2019-03-29T02:09:15.703Z,16.60
2019-03-29T02:11:46.049Z,16.13
2019-03-29T02:14:17.865Z,15.63
2019-03-29T02:16:55.862Z,16.30
2019-03-29T02:19:24.978Z,15.50
2019-03-29T02:21:55.299Z,16.00
2019-03-29T02:24:25.682Z,15.43
2019-03-29T02:26:55.973Z,16.83
2019-03-29T02:29:26.303Z,15.20
2019-03-29T02:31:57.132Z,16.17
2019-03-29T02:34:26.981Z,15.07
2019-03-29T02:36:57.297Z,15.67
2019-03-29T02:39:28.421Z,16.27
2019-03-29T02:41:58.734Z,15.37
2019-03-29T02:44:29.059Z,16.17
2019-03-29T02:46:59.410Z,16.03
2019-03-29T02:49:30.498Z,15.37
2019-03-29T02:52:20.234Z,16.33
2019-03-29T02:54:50.554Z,18.33
2019-03-29T02:57:21.656Z,16.37
2019-03-29T02:59:57.107Z,15.67
2019-03-29T03:02:27.813Z,16.53
2019-03-29T03:04:59.074Z,17.50
2019-03-29T03:07:36.736Z,16.60
2019-03-29T03:10:09.547Z,15.33
2019-03-29T03:12:40.884Z,15.80
2019-03-29T03:15:12.251Z,16.73
2019-03-29T03:18:01.950Z,16.73
2019-03-29T03:20:36.088Z,17.97
2019-03-29T03:23:06.406Z,16.47
2019-03-29T03:25:36.726Z,15.57
2019-03-29T03:28:07.070Z,16.07
2019-03-29T03:30:38.295Z,17.90
2019-03-29T03:33:08.523Z,16.33
2019-03-29T03:35:38.836Z,16.83
2019-03-29T03:38:09.147Z,17.37
2019-03-29T03:40:46.855Z,16.63
2019-03-29T03:43:19.229Z,17.50
2019-03-29T03:45:54.713Z,15.93
2019-03-29T03:48:25.798Z,16.77
2019-03-29T03:51:02.276Z,17.10
2019-03-29T03:53:52.989Z,15.63
2019-03-29T03:56:23.445Z,16.13
2019-03-29T03:58:54.594Z,17.17
2019-03-29T04:01:24.909Z,16.23
2019-03-29T04:03:56.054Z,16.03
2019-03-29T04:09:08.948Z,16.30
2019-03-29T04:11:44.375Z,17.57
2019-03-29T04:14:14.732Z,17.33
2019-03-29T04:17:05.443Z,17.23
2019-03-29T04:19:35.791Z,17.33
2019-03-29T04:22:06.111Z,16.57
2019-03-29T04:24:36.487Z,16.47
2019-03-29T04:27:06.825Z,16.57
2019-03-29T04:29:57.296Z,16.10
2019-03-29T04:32:27.631Z,16.60
2019-03-29T04:34:57.947Z,16.70
2019-03-29T04:37:28.293Z,16.03
2019-03-29T04:40:07.127Z,14.80
2019-03-29T04:42:28.975Z,15.40
2019-03-29T04:44:59.933Z,16.87
2019-03-29T04:47:29.642Z,17.00
2019-03-29T04:49:59.966Z,16.93
2019-03-29T04:52:30.631Z,16.00
2019-03-29T04:55:00.980Z,15.23
2019-03-29T04:57:31.293Z,16.60
2019-03-29T05:00:01.612Z,18.10
2019-03-29T05:02:31.960Z,15.03
2019-03-29T05:05:06.448Z,16.50
2019-03-29T05:07:37.682Z,14.13
2019-03-29T05:10:20.346Z,14.73
2019-03-29T05:12:39.080Z,15.40
2019-03-29T05:15:09.417Z,14.60
2019-03-29T05:17:41.781Z,16.13
2019-03-29T05:20:13.128Z,15.27
2019-03-29T05:22:43.471Z,16.87
2019-03-29T05:25:21.101Z,16.00
2019-03-29T05:27:51.686Z,16.93
2019-03-29T05:30:22.002Z,14.90
2019-03-29T05:32:52.344Z,16.80
2019-03-29T05:35:22.693Z,15.40
2019-03-29T05:37:53.009Z,16.00
2019-03-29T05:40:42.725Z,14.57
2019-03-29T05:43:13.047Z,15.73
2019-03-29T05:45:43.370Z,15.73
2019-03-29T05:48:13.720Z,14.43
2019-03-29T05:50:44.803Z,15.57
2019-03-29T05:53:15.138Z,16.20
2019-03-29T05:55:48.194Z,14.63
2019-03-29T05:58:16.588Z,16.93
2019-03-29T06:01:06.045Z,17.03
2019-03-29T06:03:36.363Z,16.53
2019-03-29T06:06:07.447Z,16.43
2019-03-29T06:08:37.806Z,18.13
2019-03-29T06:11:08.518Z,16.07
2019-03-29T06:13:39.861Z,16.83
2019-03-29T06:16:10.207Z,17.13
2019-03-29T06:18:40.528Z,16.50
2019-03-29T06:21:11.181Z,16.27
2019-03-29T06:23:42.306Z,17.20
2019-03-29T06:26:12.622Z,14.60
2019-03-29T06:28:42.945Z,17.00
2019-03-29T06:31:13.302Z,16.50
2019-03-29T06:33:44.771Z,15.23
2019-03-29T06:36:19.847Z,16.43
2019-03-29T06:38:50.175Z,16.50
2019-03-29T06:41:20.496Z,15.27
2019-03-29T06:43:53.916Z,17.07
2019-03-29T06:46:24.238Z,17.00
2019-03-29T06:48:54.564Z,14.07
2019-03-29T06:51:24.917Z,16.07
2019-03-29T06:53:56.009Z,15.93
2019-03-29T06:56:45.733Z,16.20
2019-03-29T06:59:16.824Z,17.17
2019-03-29T07:02:07.569Z,16.03
2019-03-29T07:04:37.895Z,17.47
2019-03-29T07:07:08.986Z,17.20
2019-03-29T07:09:43.488Z,14.93
2019-03-29T07:12:13.805Z,17.00
2019-03-29T07:14:45.746Z,16.37
2019-03-29T07:17:16.092Z,16.30
2019-03-29T07:19:46.834Z,13.30
2019-03-29T07:22:17.151Z,11.40
2019-03-29T07:24:48.778Z,13.60
2019-03-29T07:27:19.040Z,14.93
2019-03-29T07:29:50.409Z,15.07
2019-03-29T07:32:20.774Z,13.60
2019-03-29T07:34:51.212Z,12.90
2019-03-29T07:37:21.767Z,14.60
2019-03-29T07:39:53.942Z,13.40
2019-03-29T07:42:23.205Z,14.10
2019-03-29T07:44:53.618Z,13.53
2019-03-29T07:47:23.976Z,14.07
2019-03-29T07:49:55.309Z,14.83
2019-03-29T07:52:25.635Z,14.70
2019-03-29T07:54:56.003Z,14.27
2019-03-29T07:57:27.360Z,13.77
2019-03-29T07:59:58.175Z,15.00
2019-03-29T08:02:29.668Z,14.33
2019-03-29T08:04:59.610Z,13.90
2019-03-29T08:07:31.434Z,14.97
2019-03-29T08:10:03.321Z,14.63
2019-03-29T08:12:31.599Z,14.23
2019-03-29T08:15:02.514Z,13.03
2019-03-29T08:17:41.261Z,13.23
2019-03-29T08:20:38.793Z,13.63
2019-03-29T08:22:41.913Z,13.43
2019-03-29T08:27:55.713Z,14.20
2019-03-29T08:30:26.830Z,12.20
2019-03-29T08:32:57.158Z,13.97
2019-03-29T08:35:27.523Z,12.03
2019-03-29T08:37:57.880Z,12.00
2019-03-29T08:40:50.381Z,11.43
2019-03-29T08:43:20.739Z,12.63
2019-03-29T08:45:53.106Z,12.13
2019-03-29T08:48:23.429Z,11.87
2019-03-29T08:50:55.833Z,12.07
2019-03-29T08:53:27.654Z,11.73
2019-03-29T08:55:57.497Z,11.23
2019-03-29T08:58:33.991Z,12.27
2019-03-29T09:01:04.321Z,11.23
2019-03-29T09:03:34.636Z,12.63
2019-03-29T09:06:05.051Z,10.63
2019-03-29T09:08:35.371Z,11.47
2019-03-29T09:11:25.121Z,11.27
2019-03-29T09:13:55.443Z,11.77
2019-03-29T09:16:25.767Z,12.57
2019-03-29T09:18:56.128Z,11.60
2019-03-29T09:21:26.450Z,11.27
2019-03-29T09:23:57.798Z,10.67
2019-03-29T09:26:32.249Z,11.00
2019-03-29T09:29:02.570Z,10.63
2019-03-29T09:31:32.896Z,11.30
2019-03-29T09:34:03.389Z,10.63
2019-03-29T09:36:36.777Z,10.57
2019-03-29T09:39:08.130Z,10.40
2019-03-29T09:41:38.599Z,10.77
2019-03-29T09:44:08.925Z,10.70
2019-03-29T09:46:39.247Z,11.00
2019-03-29T09:49:09.600Z,9.73
2019-03-29T09:51:40.685Z,9.33
2019-03-29T09:54:11.016Z,9.50
2019-03-29T09:56:41.369Z,10.37
2019-03-29T09:59:11.695Z,10.30
2019-03-29T10:01:42.014Z,9.93
2019-03-29T10:04:12.359Z,9.90
2019-03-29T10:06:43.452Z,9.43
2019-03-29T10:09:17.910Z,9.37
2019-03-29T10:11:48.236Z,9.20
2019-03-29T10:14:18.562Z,9.37
2019-03-29T10:16:48.908Z,8.97
2019-03-29T10:19:19.991Z,8.83
2019-03-29T10:21:54.410Z,10.23
2019-03-29T10:24:24.755Z,8.53
2019-03-29T10:26:55.077Z,8.37
2019-03-29T10:29:46.840Z,8.80
2019-03-29T10:32:17.925Z,8.30
2019-03-29T10:34:48.245Z,7.77
2019-03-29T10:37:18.601Z,8.73
2019-03-29T10:39:48.923Z,9.20
2019-03-29T10:42:19.248Z,9.10
2019-03-29T10:44:49.697Z,7.53
2019-03-29T10:47:19.926Z,8.27
2019-03-29T10:49:50.276Z,7.73
2019-03-29T10:52:21.391Z,8.40
2019-03-29T10:54:51.712Z,7.80
2019-03-29T10:57:22.089Z,7.57
2019-03-29T10:59:52.469Z,8.43
2019-03-29T11:02:22.805Z,8.63
2019-03-29T11:04:53.114Z,7.40
2019-03-29T11:07:23.467Z,7.73
2019-03-29T11:09:53.778Z,6.80
2019-03-29T11:12:24.108Z,7.23
2019-03-29T11:14:55.217Z,7.63
2019-03-29T11:17:25.540Z,7.60
2019-03-29T11:19:56.888Z,7.30
2019-03-29T11:22:30.662Z,7.33
2019-03-29T11:25:01.753Z,6.83
2019-03-29T11:27:32.070Z,7.13
2019-03-29T11:30:02.422Z,6.40
2019-03-29T11:32:33.509Z,6.33
2019-03-29T11:35:03.832Z,6.67
2019-03-29T11:37:34.174Z,6.57
2019-03-29T11:40:25.914Z,6.33
2019-03-29T11:42:56.266Z,5.93
2019-03-29T11:45:26.639Z,6.20
2019-03-29T11:48:08.585Z,6.37
2019-03-29T11:50:29.287Z,6.63
2019-03-29T11:53:20.085Z,6.77
2019-03-29T11:55:50.433Z,6.27
2019-03-29T11:58:21.526Z,5.93
2019-03-29T12:01:10.206Z,6.60
2019-03-29T12:03:40.527Z,5.93
2019-03-29T12:06:10.861Z,5.10
2019-03-29T12:08:41.210Z,5.40
2019-03-29T12:11:12.294Z,5.73
2019-03-29T12:13:42.610Z,6.20
2019-03-29T12:16:12.957Z,5.87
2019-03-29T12:18:43.274Z,5.93
2019-03-29T12:21:35.793Z,6.20
2019-03-29T12:24:06.116Z,5.27
2019-03-29T12:26:36.637Z,5.17
2019-03-29T12:29:07.750Z,5.30
2019-03-29T12:34:19.780Z,4.37
2019-03-29T12:36:50.861Z,4.73
2019-03-29T12:39:21.183Z,5.00
2019-03-29T12:41:52.342Z,5.10
2019-03-29T12:44:22.626Z,5.47
2019-03-29T12:46:53.712Z,5.27
2019-03-29T12:49:28.157Z,4.77
2019-03-29T12:51:58.484Z,5.17
2019-03-29T12:54:29.824Z,5.00
2019-03-29T12:57:00.191Z,5.27
2019-03-29T12:59:32.870Z,4.57
2019-03-29T13:02:01.598Z,5.20
2019-03-29T13:04:39.863Z,4.93
2019-03-29T13:07:10.968Z,5.80
2019-03-29T13:09:41.287Z,5.27
2019-03-29T13:12:13.708Z,4.93
2019-03-29T13:14:44.799Z,4.77
2019-03-29T13:17:15.381Z,5.10
2019-03-29T13:19:47.524Z,4.80
2019-03-29T13:22:17.852Z,4.97
2019-03-29T13:24:48.174Z,4.63
2019-03-29T13:27:18.516Z,5.53
2019-03-29T13:29:49.979Z,5.50
2019-03-29T13:32:21.060Z,4.93
2019-03-29T13:34:56.524Z,5.57
2019-03-29T13:37:27.860Z,5.33
2019-03-29T13:39:58.176Z,4.60
2019-03-29T13:42:30.567Z,5.43
2019-03-29T13:45:02.926Z,5.27
2019-03-29T13:47:37.516Z,5.07
2019-03-29T13:50:08.596Z,4.93
2019-03-29T13:52:43.025Z,5.40
2019-03-29T13:55:32.820Z,5.10
2019-03-29T13:58:03.594Z,5.63
2019-03-29T14:00:34.683Z,5.40
2019-03-29T14:03:12.346Z,4.73
2019-03-29T14:05:42.667Z,4.80
2019-03-29T14:08:12.994Z,4.77
2019-03-29T14:10:44.108Z,4.83
2019-03-29T14:13:14.442Z,5.03
2019-03-29T14:15:44.776Z,4.93
2019-03-29T14:18:15.899Z,5.13
2019-03-29T14:20:46.569Z,5.13
2019-03-29T14:23:16.889Z,5.07
2019-03-29T14:25:47.997Z,4.67
2019-03-29T14:28:18.423Z,4.90
2019-03-29T14:30:49.446Z,5.27
2019-03-29T14:33:41.218Z,4.80
2019-03-29T14:36:12.307Z,5.17
2019-03-29T14:38:42.627Z,5.07
2019-03-29T14:41:19.116Z,5.20
2019-03-29T14:43:50.462Z,5.13
2019-03-29T14:46:20.774Z,4.40
2019-03-29T14:48:53.161Z,4.77
2019-03-29T14:51:24.515Z,4.50
2019-03-29T14:53:54.835Z,5.07
2019-03-29T14:56:44.553Z,4.10
2019-03-29T14:59:15.642Z,5.10
2019-03-29T15:01:45.957Z,5.83
2019-03-29T15:04:16.300Z,5.50
2019-03-29T15:06:46.620Z,4.97
2019-03-29T15:09:24.126Z,5.23
2019-03-29T15:12:00.577Z,5.27
2019-03-29T15:14:30.916Z,5.20
2019-03-29T15:17:02.258Z,4.57
2019-03-29T15:19:32.577Z,5.03
2019-03-29T15:22:07.017Z,5.47
2019-03-29T15:24:57.723Z,5.83
2019-03-29T15:27:48.468Z,6.40
2019-03-29T15:30:19.550Z,6.30
2019-03-29T15:32:55.006Z,5.63
2019-03-29T15:35:25.609Z,6.37
2019-03-29T15:37:55.928Z,6.87
2019-03-29T15:40:26.275Z,6.67
2019-03-29T15:42:58.638Z,5.53
2019-03-29T15:45:28.968Z,5.70
2019-03-29T15:47:59.317Z,5.93
2019-03-29T15:50:35.781Z,5.67
2019-03-29T15:53:12.271Z,6.77
2019-03-29T15:55:42.597Z,6.77
2019-03-29T15:58:12.913Z,6.53
2019-03-29T16:00:43.266Z,6.87
2019-03-29T16:03:13.590Z,7.27
2019-03-29T16:05:44.683Z,7.20
2019-03-29T16:08:15.034Z,7.17
2019-03-29T16:10:45.355Z,7.53
2019-03-29T16:13:15.678Z,7.97
2019-03-29T16:15:46.040Z,7.70
2019-03-29T16:18:17.127Z,8.33
2019-03-29T16:20:48.465Z,8.13
2019-03-29T16:23:19.619Z,7.03
2019-03-29T16:25:49.938Z,7.73
2019-03-29T16:28:20.268Z,8.37
2019-03-29T16:30:51.642Z,7.27
2019-03-29T16:33:22.988Z,7.67
2019-03-29T16:35:55.354Z,7.13
2019-03-29T16:38:47.131Z,7.63
2019-03-29T16:41:19.243Z,7.90
2019-03-29T16:43:53.689Z,8.27
2019-03-29T16:46:24.009Z,7.30
2019-03-29T16:51:37.831Z,7.50
2019-03-29T16:54:08.155Z,7.47
2019-03-29T16:56:38.480Z,7.60
2019-03-29T16:59:08.855Z,9.65
2019-03-29T17:01:39.171Z,7.33
2019-03-29T17:04:09.492Z,7.80
2019-03-29T17:06:39.847Z,7.73
2019-03-29T17:09:10.178Z,7.33
2019-03-29T17:11:42.280Z,7.30
2019-03-29T17:14:12.627Z,8.00
2019-03-29T17:16:46.019Z,7.03
2019-03-29T17:19:37.783Z,6.50
2019-03-29T17:22:08.110Z,6.90
2019-03-29T17:24:38.439Z,7.03
2019-03-29T17:27:08.787Z,7.03
2019-03-29T17:29:39.111Z,16.50
2019-03-29T17:32:09.744Z,8.40
2019-03-29T17:34:40.090Z,7.40
2019-03-29T17:37:10.410Z,6.90
2019-03-29T17:39:40.730Z,7.07
2019-03-29T17:42:11.075Z,6.80
2019-03-29T17:44:45.485Z,6.57
2019-03-29T17:47:15.812Z,7.03
2019-03-29T17:49:46.164Z,7.20
2019-03-29T17:52:38.668Z,7.47
2019-03-29T17:55:09.013Z,8.30
2019-03-29T17:57:39.341Z,13.43
2019-03-29T18:00:10.690Z,10.57
2019-03-29T18:02:41.038Z,8.17
2019-03-29T18:05:11.366Z,7.97
2019-03-29T18:07:41.689Z,8.13
2019-03-29T18:10:14.086Z,8.03
2019-03-29T18:12:44.418Z,7.93
2019-03-29T18:15:15.506Z,10.43
2019-03-29T18:17:45.867Z,8.43
2019-03-29T18:20:16.197Z,7.40
2019-03-29T18:22:46.529Z,7.30
2019-03-29T18:25:16.894Z,7.07
2019-03-29T18:27:47.580Z,7.67
2019-03-29T18:30:17.543Z,7.57
2019-03-29T18:32:47.894Z,8.43
2019-03-29T18:35:18.218Z,7.87
2019-03-29T18:38:07.685Z,9.90
2019-03-29T18:40:38.302Z,8.77
2019-03-29T18:43:08.918Z,9.60
2019-03-29T18:45:41.599Z,8.80
2019-03-29T18:48:10.622Z,9.00
2019-03-29T18:50:40.957Z,10.27
2019-03-29T18:53:15.398Z,10.53
2019-03-29T18:55:45.728Z,10.40
2019-03-29T18:58:16.058Z,10.90
2019-03-29T19:00:46.421Z,10.03
2019-03-29T19:03:16.753Z,10.57
2019-03-29T19:05:47.087Z,11.97
2019-03-29T19:08:17.449Z,13.03
2019-03-29T19:10:47.781Z,11.57
2019-03-29T19:13:18.104Z,12.47
2019-03-29T19:15:48.471Z,13.03
2019-03-29T19:18:18.795Z,12.43
2019-03-29T19:20:49.888Z,13.73
2019-03-29T19:23:20.248Z,16.00
2019-03-29T19:25:51.349Z,22.13
2019-03-29T19:28:21.935Z,26.77
2019-03-29T19:30:52.290Z,25.80
2019-03-29T19:33:22.628Z,30.80
2019-03-29T19:35:52.968Z,20.07
2019-03-29T19:38:26.635Z,16.63
2019-03-29T19:40:56.960Z,15.20
2019-03-29T19:43:27.287Z,13.17
2019-03-29T19:45:58.004Z,12.37
2019-03-29T19:48:29.097Z,17.00
2019-03-29T19:50:59.422Z,17.90
2019-03-29T19:53:29.784Z,14.00
2019-03-29T19:56:00.917Z,12.67
2019-03-29T19:58:35.328Z,10.77
2019-03-29T20:01:24.003Z,10.90
2019-03-29T20:03:54.337Z,10.43
2019-03-29T20:06:25.823Z,10.07
2019-03-29T20:08:55.273Z,10.10
2019-03-29T20:11:25.595Z,9.40
2019-03-29T20:13:55.928Z,9.90
2019-03-29T20:16:26.686Z,9.40
2019-03-29T20:18:56.964Z,9.80
2019-03-29T20:21:27.301Z,9.17
2019-03-29T20:23:57.672Z,8.40
2019-03-29T20:26:28.014Z,9.17
2019-03-29T20:28:58.346Z,9.10
2019-03-29T20:31:29.729Z,8.30
2019-03-29T20:34:00.062Z,8.87
2019-03-29T20:36:30.391Z,9.63
2019-03-29T20:39:00.803Z,11.47
2019-03-29T20:41:31.137Z,16.20
2019-03-29T20:44:01.482Z,16.00
2019-03-29T20:46:31.865Z,13.87
2019-03-29T20:49:02.200Z,13.70
2019-03-29T20:51:32.526Z,14.60
2019-03-29T20:54:02.888Z,14.77
2019-03-29T20:59:17.752Z,12.60
2019-03-29T21:01:52.503Z,12.60
2019-03-29T21:04:20.223Z,12.20
2019-03-29T21:06:50.585Z,10.97
2019-03-29T21:09:20.929Z,11.73
2019-03-29T21:11:51.277Z,11.93
2019-03-29T21:14:21.639Z,11.13
2019-03-29T21:16:51.987Z,11.97
2019-03-29T21:19:22.339Z,12.20
2019-03-29T21:21:52.700Z,12.93
2019-03-29T21:24:23.278Z,12.90
2019-03-29T21:26:54.383Z,12.37
2019-03-29T21:29:25.481Z,10.93
2019-03-29T21:31:55.887Z,13.23
2019-03-29T21:34:26.160Z,15.40
2019-03-29T21:36:58.567Z,15.87
2019-03-29T21:39:31.221Z,15.63
2019-03-29T21:41:59.261Z,14.80
2019-03-29T21:44:29.609Z,15.93
2019-03-29T21:46:59.962Z,16.10
2019-03-29T21:49:30.322Z,17.27
2019-03-29T21:52:01.769Z,19.50
2019-03-29T21:54:32.863Z,20.30
2019-03-29T21:57:03.247Z,20.70
2019-03-29T21:59:33.607Z,20.47
2019-03-29T22:02:25.102Z,21.37
2019-03-29T22:04:55.449Z,20.67
2019-03-29T22:07:31.913Z,18.43
2019-03-29T22:10:02.266Z,19.20
2019-03-29T22:12:32.600Z,18.43
2019-03-29T22:15:02.944Z,18.00
2019-03-29T22:17:33.286Z,17.47
2019-03-29T22:20:04.379Z,17.47
2019-03-29T22:22:55.107Z,16.73
2019-03-29T22:25:25.439Z,18.30
2019-03-29T22:27:56.546Z,17.67
2019-03-29T22:30:46.256Z,17.30
2019-03-29T22:33:16.686Z,16.50
2019-03-29T22:35:47.188Z,16.73
2019-03-29T22:38:18.092Z,16.97
2019-03-29T22:40:53.467Z,16.03
2019-03-29T22:43:45.224Z,18.23
2019-03-29T22:46:15.555Z,22.57
2019-03-29T22:48:52.346Z,21.83
2019-03-29T22:51:17.002Z,21.13
2019-03-29T22:53:48.770Z,22.43
2019-03-29T22:56:19.095Z,21.13
2019-03-29T22:58:50.476Z,19.73
2019-03-29T23:01:21.574Z,21.97
2019-03-29T23:03:51.899Z,19.20
2019-03-29T23:06:22.266Z,19.83
2019-03-29T23:08:52.599Z,20.60
2019-03-29T23:11:23.696Z,19.20
2019-03-29T23:13:57.619Z,19.60
2019-03-29T23:16:30.426Z,19.17
2019-03-29T23:19:06.430Z,19.93
2019-03-29T23:21:28.634Z,19.33
2019-03-29T23:23:59.727Z,19.10
2019-03-29T23:26:30.153Z,19.13
2019-03-29T23:29:00.409Z,17.70
2019-03-29T23:31:31.507Z,19.07
2019-03-29T23:34:04.913Z,17.77
2019-03-29T23:36:35.265Z,17.90
2019-03-29T23:39:05.596Z,16.40
2019-03-29T23:41:36.699Z,16.40
2019-03-29T23:44:29.229Z,17.57
2019-03-29T23:46:59.552Z,17.30
2019-03-29T23:49:30.909Z,16.33
2019-03-29T23:52:07.397Z,15.73
2019-03-29T23:54:37.721Z,14.13
2019-03-29T23:57:08.060Z,15.40
2019-03-29T23:59:38.416Z,15.53
